Time;durP1;ratioP1;P1;durP2;ratioP2;P2;SDS_P1;SDS_P2;PMS_P1;PMS_P2;Temp;Humidity;BMP_temperature;BMP_pressure;BME280_temperature;BME280_humidity;BME280_pressure;Samples;Min_cycle;Max_cycle;Signal;HPM_P1;HPM_P2
2023/04/11 00:00:41;;;;;;;19.90;14.40;;;;;;;10.47;59.89;100821.58;105517;1254;62547;-53
2023/04/11 00:03:10;;;;;;;16.40;12.60;;;;;;;10.51;59.75;100824.43;105320;1259;64835;-53
2023/04/11 00:05:40;;;;;;;16.50;12.70;;;;;;;10.53;59.72;100827.80;105512;1256;59567;-54
2023/04/11 00:08:08;;;;;;;17.00;12.70;;;;;;;10.49;59.74;100825.51;105363;1255;59641;-55
2023/04/11 00:10:40;;;;;;;18.30;12.90;;;;;;;10.42;59.71;100824.25;105333;1259;65477;-54
2023/04/11 00:13:11;;;;;;;19.90;14.10;;;;;;;10.36;59.67;100825.36;105246;1259;62634;-55
2023/04/11 00:15:40;;;;;;;18.40;13.90;;;;;;;10.30;59.59;100821.59;105315;1254;65133;-55
2023/04/11 00:18:11;;;;;;;17.00;12.90;;;;;;;10.25;59.55;100827.01;105882;1254;59801;-54
2023/04/11 00:20:39;;;;;;;18.00;12.70;;;;;;;10.17;59.60;100827.35;105263;1257;59637;-54
2023/04/11 00:23:07;;;;;;;16.70;12.60;;;;;;;10.10;59.86;100823.88;105254;1255;65090;-54
2023/04/11 00:25:36;;;;;;;18.60;12.50;;;;;;;10.11;59.69;100823.67;105301;1258;62586;-54
2023/04/11 00:28:04;;;;;;;16.40;12.30;;;;;;;10.12;59.71;100820.90;105314;1255;64795;-54
2023/04/11 00:30:33;;;;;;;19.10;13.10;;;;;;;10.11;59.71;100819.73;106058;1254;59745;-55
2023/04/11 00:33:02;;;;;;;17.50;13.00;;;;;;;10.09;59.58;100819.02;105389;1254;59660;-55
2023/04/11 00:35:33;;;;;;;21.30;13.20;;;;;;;10.11;59.36;100819.90;105301;1258;65442;-55
2023/04/11 00:38:02;;;;;;;23.00;13.00;;;;;;;10.11;59.17;100815.35;106115;1260;62342;-54
2023/04/11 00:40:31;;;;;;;18.10;13.70;;;;;;;10.08;59.22;100814.32;105518;1260;73161;-54
2023/04/11 00:43:19;;;;;;;17.80;13.30;;;;;;;10.03;59.18;100812.05;105247;1259;59815;-54
2023/04/11 00:45:47;;;;;;;18.60;13.50;;;;;;;9.98;59.27;100811.69;105276;1254;59764;-55
2023/04/11 00:48:16;;;;;;;17.10;13.60;;;;;;;9.94;59.34;100811.80;105484;1254;65104;-54
2023/04/11 00:50:46;;;;;;;16.60;13.30;;;;;;;9.88;59.58;100812.05;105481;1256;62364;-54
2023/04/11 00:53:16;;;;;;;19.20;13.90;;;;;;;9.81;59.66;100813.42;106020;1257;65101;-54
2023/04/11 00:55:44;;;;;;;16.80;13.50;;;;;;;9.73;59.74;100814.52;105727;1254;59669;-54
2023/04/11 00:58:15;;;;;;;14.70;11.40;;;;;;;9.73;59.76;100813.87;105169;1255;59676;-54
2023/04/11 01:00:43;;;;;;;16.50;12.40;;;;;;;9.76;59.69;100815.77;106186;1259;67175;-55
2023/04/11 01:03:13;;;;;;;16.30;12.90;;;;;;;9.76;59.71;100816.59;105410;1260;62384;-54
2023/04/11 01:05:42;;;;;;;16.40;12.40;;;;;;;9.76;59.81;100817.45;105404;1255;64778;-55
2023/04/11 01:08:10;;;;;;;17.80;13.40;;;;;;;9.75;59.95;100822.79;105451;1254;60552;-55
2023/04/11 01:10:40;;;;;;;16.40;12.90;;;;;;;9.72;60.02;100822.98;105697;1254;60447;-53
2023/04/11 01:13:08;;;;;;;17.50;13.00;;;;;;;9.69;60.02;100824.98;105383;1254;65891;-55
2023/04/11 01:15:47;;;;;;;18.20;13.30;;;;;;;9.64;60.06;100827.75;105407;1259;61575;-55
2023/04/11 01:18:17;;;;;;;17.60;13.90;;;;;;;9.58;60.12;100827.45;105444;1259;65813;-55
2023/04/11 01:20:46;;;;;;;17.30;14.30;;;;;;;9.52;60.21;100823.00;105876;1259;61751;-56
2023/04/11 01:23:24;;;;;;;17.50;13.80;;;;;;;9.45;60.34;100817.98;106046;1254;60597;-55
2023/04/11 01:25:53;;;;;;;18.40;13.30;;;;;;;9.42;60.40;100812.80;105573;1256;65855;-54
2023/04/11 01:28:22;;;;;;;17.70;12.60;;;;;;;9.45;60.31;100813.63;105600;1254;63217;-54
2023/04/11 01:30:50;;;;;;;16.10;12.80;;;;;;;9.53;60.30;100813.45;105401;1254;65022;-54
2023/04/11 01:33:20;;;;;;;20.30;14.10;;;;;;;9.58;60.22;100806.23;105322;1254;60505;-54
2023/04/11 01:35:48;;;;;;;17.80;14.30;;;;;;;9.58;60.13;100806.45;105377;1257;60348;-54
2023/04/11 01:38:22;;;;;;;18.70;13.70;;;;;;;9.55;60.27;100808.26;105955;1257;66430;-53
2023/04/11 01:40:51;;;;;;;16.70;13.80;;;;;;;9.50;60.24;100808.36;105434;1257;62437;-54
2023/04/11 01:43:19;;;;;;;17.80;13.70;;;;;;;9.44;60.18;100805.63;105433;1255;65097;-54
2023/04/11 01:45:51;;;;;;;17.20;14.10;;;;;;;9.39;60.26;100804.95;105294;1254;60478;-54
2023/04/11 01:48:19;;;;;;;17.40;14.40;;;;;;;9.34;60.30;100805.26;105156;1255;60486;-54
2023/04/11 01:50:49;;;;;;;18.70;14.50;;;;;;;9.29;60.34;100805.77;105413;1258;66222;-54
2023/04/11 01:53:18;;;;;;;21.90;15.40;;;;;;;9.25;60.24;100803.94;105642;1256;62644;-54
2023/04/11 01:55:46;;;;;;;19.20;14.30;;;;;;;9.23;60.07;100800.62;105382;1260;67296;-55
2023/04/11 01:58:15;;;;;;;19.90;13.20;;;;;;;9.27;59.88;100798.23;105311;1254;60710;-55
2023/04/11 02:00:43;;;;;;;18.70;14.60;;;;;;;9.33;59.62;100794.31;105374;1257;60472;-55
2023/04/11 02:03:12;;;;;;;18.20;14.00;;;;;;;9.37;59.49;100793.90;105680;1259;65980;-53
2023/04/11 02:05:42;;;;;;;21.20;15.20;;;;;;;9.36;59.50;100796.90;105397;1256;62372;-55
2023/04/11 02:08:27;;;;;;;11.60;6.80;;;;;;;9.35;59.43;100797.32;105786;1256;64779;-55
2023/04/11 02:10:56;;;;;;;20.60;14.70;;;;;;;9.35;59.41;100794.72;105425;1254;60573;-56
2023/04/11 02:13:24;;;;;;;21.80;15.20;;;;;;;9.33;59.34;100790.99;105723;1256;60530;-53
2023/04/11 02:15:52;;;;;;;19.90;14.00;;;;;;;9.30;59.33;100790.16;105624;1255;66141;-53
2023/04/11 02:18:23;;;;;;;23.30;15.90;;;;;;;9.24;59.56;100786.88;105642;1256;61723;-53
2023/04/11 02:20:52;;;;;;;18.80;14.20;;;;;;;9.16;59.70;100785.67;105741;1260;64899;-54
2023/04/11 02:23:22;;;;;;;18.60;14.50;;;;;;;9.08;59.78;100779.91;105301;1260;60403;-54
2023/04/11 02:25:51;;;;;;;17.20;13.80;;;;;;;9.02;59.82;100777.85;105847;1254;60495;-54
2023/04/11 02:28:20;;;;;;;18.10;13.20;;;;;;;9.03;59.71;100777.25;105408;1260;66200;-54
2023/04/11 02:30:49;;;;;;;17.60;13.70;;;;;;;9.08;59.52;100777.64;105551;1254;62037;-55
2023/04/11 02:33:19;;;;;;;17.70;14.40;;;;;;;9.11;59.33;100780.23;105726;1254;65154;-54
2023/04/11 02:35:47;;;;;;;17.30;14.30;;;;;;;9.12;59.21;100781.58;105584;1254;60451;-55
2023/04/11 02:38:16;;;;;;;20.50;15.10;;;;;;;9.12;59.13;100778.38;105426;1254;60444;-54
2023/04/11 02:40:46;;;;;;;19.90;15.00;;;;;;;9.11;58.85;100778.09;105277;1259;66201;-55
2023/04/11 02:43:17;;;;;;;20.80;15.60;;;;;;;9.09;58.63;100774.42;105502;1254;62629;-54
2023/04/11 02:45:46;;;;;;;19.10;14.80;;;;;;;9.06;58.53;100774.20;105320;1254;64740;-55
2023/04/11 02:48:15;;;;;;;23.60;15.40;;;;;;;9.02;58.64;100768.59;105405;1254;60450;-55
2023/04/11 02:50:48;;;;;;;16.70;13.50;;;;;;;8.97;58.74;100767.20;105167;1259;60469;-55
2023/04/11 02:53:17;;;;;;;21.10;16.70;;;;;;;8.90;58.86;100763.61;105275;1254;64927;-55
2023/04/11 02:55:48;;;;;;;20.20;15.50;;;;;;;8.84;58.80;100762.26;105964;1254;62296;-54
2023/04/11 02:58:18;;;;;;;17.80;8.00;;;;;;;8.80;58.74;100764.60;106073;1254;64139;-54
2023/04/11 03:00:48;;;;;;;16.40;13.60;;;;;;;8.84;58.57;100762.96;105781;1260;60460;-54
2023/04/11 03:03:25;;;;;;;17.60;13.50;;;;;;;8.90;58.36;100763.42;105958;1254;60414;-55
2023/04/11 03:05:55;;;;;;;18.40;14.80;;;;;;;8.92;58.30;100760.63;105258;1254;65130;-54
2023/04/11 03:08:24;;;;;;;20.70;14.80;;;;;;;8.92;58.25;100761.35;105417;1254;63211;-55
2023/04/11 03:10:55;;;;;;;19.90;15.10;;;;;;;8.92;58.09;100759.81;105965;1257;65027;-54
2023/04/11 03:13:25;;;;;;;18.20;14.00;;;;;;;8.90;58.14;100759.04;105507;1254;60390;-54
2023/04/11 03:15:53;;;;;;;17.80;14.90;;;;;;;8.86;58.00;100756.55;105340;1254;60510;-53
2023/04/11 03:18:25;;;;;;;18.20;14.60;;;;;;;8.82;57.85;100755.57;105428;1255;66239;-55
2023/04/11 03:20:54;;;;;;;20.10;14.10;;;;;;;8.79;57.84;100754.40;106264;1254;62438;-54
2023/04/11 03:23:26;;;;;;;18.40;15.10;;;;;;;8.74;57.79;100758.19;106512;1258;64068;-54
2023/04/11 03:25:55;;;;;;;18.50;15.20;;;;;;;8.71;57.81;100760.52;105453;1254;60373;-54
2023/04/11 03:28:23;;;;;;;20.40;15.90;;;;;;;8.68;57.89;100759.48;105338;1254;60501;-53
2023/04/11 03:30:53;;;;;;;20.60;13.90;;;;;;;8.66;57.83;100761.00;105548;1257;65856;-53
2023/04/11 03:33:22;;;;;;;18.60;13.30;;;;;;;8.71;57.73;100760.85;105550;1259;61420;-53
2023/04/11 03:35:51;;;;;;;22.70;13.70;;;;;;;8.79;57.52;100757.89;105433;1254;65258;-54
2023/04/11 03:38:20;;;;;;;20.20;14.30;;;;;;;8.83;57.21;100761.09;105540;1254;60454;-54
2023/04/11 03:40:48;;;;;;;18.00;13.60;;;;;;;8.86;56.84;100764.38;106278;1254;61224;-54
2023/04/11 03:43:19;;;;;;;20.00;14.50;;;;;;;8.87;56.82;100763.61;105717;1254;65185;-54
2023/04/11 03:45:47;;;;;;;20.80;14.70;;;;;;;8.89;56.81;100761.96;105849;1254;62358;-54
2023/04/11 03:48:25;;;;;;;19.70;14.00;;;;;;;8.89;56.44;100758.80;106043;1254;65600;-54
2023/04/11 03:50:57;;;;;;;20.10;13.40;;;;;;;8.87;56.42;100758.88;105448;1254;60454;-54
2023/04/11 03:53:36;;;;;;;19.50;13.60;;;;;;;8.87;56.27;100756.10;105848;1254;60455;-54
2023/04/11 03:56:17;;;;;;;18.80;14.00;;;;;;;8.87;56.13;100758.19;105595;1254;66088;-54
2023/04/11 03:58:46;;;;;;;20.00;13.70;;;;;;;8.87;55.87;100757.33;107478;1254;63084;-54
2023/04/11 04:01:15;;;;;;;18.10;14.00;;;;;;;8.87;55.69;100756.99;105318;1257;64071;-54
2023/04/11 04:03:45;;;;;;;23.20;14.40;;;;;;;8.87;55.61;100749.81;105430;1254;60543;-53
2023/04/11 04:06:14;;;;;;;15.50;13.30;;;;;;;8.86;55.47;100746.52;105323;1254;60457;-54
2023/04/11 04:08:43;;;;;;;21.40;15.00;;;;;;;8.87;55.59;100742.66;105381;1256;65924;-54
2023/04/11 04:11:12;;;;;;;18.70;13.00;;;;;;;8.87;55.26;100739.47;105488;1257;63912;-53
2023/04/11 04:13:40;;;;;;;22.00;14.10;;;;;;;8.88;54.91;100736.32;105410;1259;65519;-54
2023/04/11 04:16:11;;;;;;;22.50;14.80;;;;;;;8.89;54.47;100729.20;105354;1257;60470;-54
2023/04/11 04:18:41;;;;;;;19.30;13.70;;;;;;;8.90;54.38;100725.45;108475;1253;58320;-54
2023/04/11 04:21:10;;;;;;;19.80;14.40;;;;;;;8.93;54.44;100724.73;105450;1255;65883;-54
2023/04/11 04:23:46;;;;;;;19.90;14.40;;;;;;;8.96;54.37;100722.42;106558;1254;62839;-54
2023/04/11 04:26:38;;;;;;;21.90;13.90;;;;;;;8.99;54.41;100720.14;105296;1257;65050;-54
2023/04/11 04:29:22;;;;;;;12.20;6.40;;;;;;;9.01;54.07;100719.84;105275;1254;60315;-54
2023/04/11 04:31:55;;;;;;;19.10;14.80;;;;;;;9.03;54.12;100714.09;105174;1259;61647;-53
2023/04/11 04:34:32;;;;;;;19.20;14.50;;;;;;;9.06;54.10;100716.14;109004;1254;66817;-54
2023/04/11 04:37:00;;;;;;;20.80;14.50;;;;;;;9.11;54.14;100717.89;108932;1254;62852;-54
2023/04/11 04:39:40;;;;;;;18.90;13.70;;;;;;;9.14;53.84;100711.06;109002;1254;64050;-53
2023/04/11 04:42:10;;;;;;;19.80;14.30;;;;;;;9.19;53.93;100711.77;108999;1254;58466;-54
2023/04/11 04:44:59;;;;;;;19.50;13.80;;;;;;;9.26;54.01;100706.95;108133;1256;58228;-53
2023/04/11 04:47:31;;;;;;;19.50;13.50;;;;;;;9.32;53.75;100708.77;105306;1257;66303;-54
2023/04/11 04:50:00;;;;;;;18.30;14.10;;;;;;;9.39;53.68;100711.98;105221;1256;61554;-53
2023/04/11 04:52:29;;;;;;;18.00;12.90;;;;;;;9.46;53.41;100712.38;104902;1259;63829;-54
2023/04/11 04:54:58;;;;;;;20.80;13.90;;;;;;;9.51;53.33;100707.10;105010;1254;61298;-54
2023/04/11 04:57:28;;;;;;;18.00;13.80;;;;;;;9.56;53.51;100702.74;105022;1254;60488;-54
2023/04/11 04:59:56;;;;;;;19.20;12.80;;;;;;;9.61;53.45;100704.14;105046;1255;65967;-54
2023/04/11 05:02:25;;;;;;;19.70;13.30;;;;;;;9.66;52.93;100705.36;105938;1254;63481;-54
2023/04/11 05:04:55;;;;;;;19.50;13.40;;;;;;;9.71;53.05;100706.93;105020;1259;65046;-54
2023/04/11 05:07:25;;;;;;;17.80;13.00;;;;;;;9.76;52.04;100707.41;105048;1254;60444;-55
2023/04/11 05:09:59;;;;;;;12.30;5.50;;;;;;;9.85;51.56;100710.16;105225;1254;60450;-54
2023/04/11 05:12:29;;;;;;;15.60;12.60;;;;;;;9.93;51.54;100710.15;105271;1259;66300;-55
2023/04/11 05:15:03;;;;;;;16.60;12.30;;;;;;;9.99;51.44;100708.27;105297;1256;62535;-54
2023/04/11 05:17:33;;;;;;;18.00;12.10;;;;;;;10.06;50.84;100707.54;106147;1254;65477;-55
2023/04/11 05:20:05;;;;;;;22.20;13.70;;;;;;;10.13;50.66;100707.41;105514;1259;61645;-55
2023/04/11 05:22:33;;;;;;;19.00;12.70;;;;;;;10.19;50.58;100701.70;105470;1254;60536;-55
2023/04/11 05:25:04;;;;;;;16.00;11.90;;;;;;;10.26;50.57;100702.10;105406;1254;65888;-55
2023/04/11 05:27:33;;;;;;;16.80;11.90;;;;;;;10.33;50.46;100701.08;105438;1255;62471;-55
2023/04/11 05:30:02;;;;;;;17.30;12.20;;;;;;;10.39;50.27;100700.84;105219;1254;65065;-55
2023/04/11 05:32:37;;;;;;;13.50;6.20;;;;;;;10.46;50.32;100696.95;109014;1254;58489;-53
2023/04/11 05:35:06;;;;;;;17.20;12.30;;;;;;;10.53;50.19;100693.27;108915;1254;59491;-54
2023/04/11 05:37:57;;;;;;;16.20;12.00;;;;;;;10.60;50.04;100688.73;108954;1254;65062;-54
2023/04/11 05:40:25;;;;;;;19.50;12.50;;;;;;;10.68;49.84;100690.09;108982;1254;62435;-54
2023/04/11 05:42:53;;;;;;;14.90;10.90;;;;;;;10.75;49.66;100692.52;108957;1254;63739;-54
2023/04/11 05:45:23;;;;;;;17.20;11.80;;;;;;;10.82;49.72;100694.59;105370;1259;60750;-54
2023/04/11 05:47:51;;;;;;;16.00;10.10;;;;;;;10.89;49.72;100690.73;105540;1254;60464;-53
2023/04/11 05:50:27;;;;;;;18.30;10.40;;;;;;;10.95;49.71;100689.77;105443;1259;66363;-55
2023/04/11 05:52:56;;;;;;;15.50;11.30;;;;;;;11.00;49.70;100690.41;105613;1256;62771;-54
2023/04/11 05:55:24;;;;;;;17.50;11.40;;;;;;;11.07;49.30;100686.59;105657;1256;64991;-55
2023/04/11 05:57:58;;;;;;;16.80;11.30;;;;;;;11.14;49.16;100686.92;105330;1254;61743;-55
2023/04/11 06:00:29;;;;;;;16.00;11.10;;;;;;;11.20;49.19;100689.02;105104;1253;60454;-54
2023/04/11 06:03:08;;;;;;;15.20;10.90;;;;;;;11.27;49.36;100689.72;105545;1253;65917;-55
2023/04/11 06:05:39;;;;;;;15.20;11.30;;;;;;;11.34;49.27;100688.52;105633;1254;62929;-56
2023/04/11 06:08:10;;;;;;;16.70;11.30;;;;;;;11.40;48.65;100682.05;106375;1257;64962;-55
2023/04/11 06:10:39;;;;;;;15.30;10.70;;;;;;;11.48;48.49;100678.84;105250;1254;60508;-53
2023/04/11 06:13:07;;;;;;;18.10;11.30;;;;;;;11.53;48.30;100678.96;105363;1254;60682;-54
2023/04/11 06:15:36;;;;;;;14.00;10.20;;;;;;;11.58;48.22;100676.94;105393;1259;65346;-56
2023/04/11 06:18:05;;;;;;;17.90;11.20;;;;;;;11.64;48.37;100677.02;105292;1257;61649;-55
2023/04/11 06:20:35;;;;;;;13.30;10.10;;;;;;;11.69;48.31;100677.83;105395;1254;64738;-54
2023/04/11 06:23:06;;;;;;;14.30;10.60;;;;;;;11.74;48.48;100676.21;105193;1256;60494;-54
2023/04/11 06:25:35;;;;;;;14.50;10.00;;;;;;;11.79;48.01;100680.53;106299;1254;60438;-54
2023/04/11 06:28:03;;;;;;;17.40;10.70;;;;;;;11.86;47.93;100681.63;105348;1259;66554;-55
2023/04/11 06:30:31;;;;;;;14.40;10.50;;;;;;;11.90;48.16;100679.50;105223;1255;62615;-55
2023/04/11 06:33:00;;;;;;;13.00;9.70;;;;;;;11.97;48.44;100674.91;105893;1257;65125;-55
2023/04/11 06:35:28;;;;;;;14.60;9.70;;;;;;;12.05;48.31;100671.80;105599;1254;60373;-55
2023/04/11 06:37:57;;;;;;;12.60;9.40;;;;;;;12.14;48.31;100674.25;109039;1254;59288;-66
2023/04/11 06:40:28;;;;;;;13.90;9.80;;;;;;;12.23;48.49;100674.71;109045;1254;65946;-54
2023/04/11 06:42:58;;;;;;;14.60;9.80;;;;;;;12.33;48.24;100673.77;109082;1254;62402;-55
2023/04/11 06:45:27;;;;;;;11.70;8.70;;;;;;;12.42;48.11;100668.55;109057;1254;64968;-61
2023/04/11 06:47:55;;;;;;;13.90;9.30;;;;;;;12.53;47.64;100669.99;109005;1254;58683;-61
2023/04/11 06:50:23;;;;;;;15.60;8.30;;;;;;;12.62;47.20;100666.04;109088;1254;58451;-60
2023/04/11 06:52:54;;;;;;;13.60;8.90;;;;;;;12.72;47.13;100667.34;105008;1254;69193;-59
2023/04/11 06:55:22;;;;;;;14.00;8.60;;;;;;;12.81;47.19;100661.13;105089;1254;62523;-60
2023/04/11 06:57:51;;;;;;;11.80;8.40;;;;;;;12.89;47.12;100655.52;105946;1254;65208;-60
2023/04/11 07:00:20;;;;;;;12.80;7.90;;;;;;;12.96;46.54;100658.80;105323;1259;61107;-60
2023/04/11 07:02:50;;;;;;;12.80;8.30;;;;;;;13.01;46.36;100662.20;105016;1259;61167;-56
2023/04/11 07:05:18;;;;;;;11.90;8.50;;;;;;;13.06;46.26;100658.27;105142;1260;66415;-57
2023/04/11 07:07:48;;;;;;;16.70;8.70;;;;;;;13.10;45.80;100654.56;105330;1254;62497;-56
2023/04/11 07:10:17;;;;;;;13.10;7.70;;;;;;;13.14;46.20;100651.25;105667;1254;65039;-55
2023/04/11 07:12:45;;;;;;;10.30;7.70;;;;;;;13.19;46.15;100650.80;105465;1257;60498;-56
2023/04/11 07:15:16;;;;;;;16.10;7.80;;;;;;;13.25;45.86;100639.92;105322;1254;60316;-57
2023/04/11 07:17:47;;;;;;;15.50;7.70;;;;;;;13.30;44.40;100636.48;105574;1257;66299;-57
2023/04/11 07:20:18;;;;;;;10.70;7.60;;;;;;;13.33;44.05;100634.48;105588;1254;63326;-56
2023/04/11 07:22:47;;;;;;;12.50;7.80;;;;;;;13.35;43.94;100627.98;105937;1254;65020;-56
2023/04/11 07:25:21;;;;;;;11.20;7.80;;;;;;;13.37;43.89;100626.05;105650;1254;60564;-57
2023/04/11 07:27:50;;;;;;;10.50;7.30;;;;;;;13.38;44.15;100628.73;105651;1254;60556;-56
2023/04/11 07:30:20;;;;;;;10.60;7.70;;;;;;;13.40;43.61;100623.83;105668;1254;66208;-57
2023/04/11 07:32:50;;;;;;;15.80;7.60;;;;;;;13.41;43.87;100623.42;105306;1254;62684;-56
2023/04/11 07:35:19;;;;;;;13.20;8.00;;;;;;;13.44;44.38;100628.75;105347;1254;64833;-56
2023/04/11 07:37:48;;;;;;;12.40;7.20;;;;;;;13.47;44.52;100629.23;105942;1254;60367;-55
2023/04/11 07:40:16;;;;;;;12.10;7.40;;;;;;;13.50;44.64;100628.09;105569;1254;60447;-56
2023/04/11 07:42:45;;;;;;;11.70;7.60;;;;;;;13.52;44.75;100625.21;105544;1259;66198;-55
2023/04/11 07:45:13;;;;;;;10.80;7.10;;;;;;;13.54;44.44;100621.73;105341;1258;61539;-57
2023/04/11 07:47:43;;;;;;;15.00;6.50;;;;;;;13.55;44.05;100617.05;105362;1254;65135;-56
2023/04/11 07:50:11;;;;;;;12.20;7.00;;;;;;;13.55;43.68;100615.22;105150;1254;60943;-56
2023/04/11 07:52:40;;;;;;;13.60;7.80;;;;;;;13.57;43.54;100618.11;105853;1254;60457;-57
2023/04/11 07:55:09;;;;;;;9.90;7.20;;;;;;;13.56;43.46;100613.75;105724;1257;74814;-56
2023/04/11 07:57:37;;;;;;;13.30;7.10;;;;;;;13.59;43.56;100608.47;105583;1257;61612;-56
2023/04/11 08:00:08;;;;;;;9.10;6.50;;;;;;;13.62;43.58;100608.00;105146;1255;64678;-56
2023/04/11 08:02:42;;;;;;;12.50;7.10;;;;;;;13.68;43.79;100605.53;105022;1259;61346;-56
2023/04/11 08:05:11;;;;;;;11.00;6.80;;;;;;;13.75;43.64;100602.55;105757;1259;59564;-56
2023/04/11 08:07:47;;;;;;;11.70;6.90;;;;;;;13.85;43.69;100595.02;105562;1254;66074;-57
2023/04/11 08:10:16;;;;;;;10.00;6.90;;;;;;;13.93;43.46;100591.27;105300;1254;62804;-56
2023/04/11 08:12:44;;;;;;;11.00;7.00;;;;;;;14.00;43.50;100587.30;105403;1259;65050;-56
2023/04/11 08:15:16;;;;;;;12.50;6.40;;;;;;;14.08;43.47;100581.80;105303;1254;60536;-56
2023/04/11 08:17:45;;;;;;;12.30;7.00;;;;;;;14.15;43.04;100576.70;105457;1254;60384;-57
2023/04/11 08:20:14;;;;;;;10.60;6.90;;;;;;;14.21;43.20;100574.73;105527;1254;65213;-56
2023/04/11 08:22:45;;;;;;;20.10;7.10;;;;;;;14.27;42.55;100568.93;105396;1254;62491;-57
2023/04/11 08:25:14;;;;;;;11.40;7.10;;;;;;;14.33;43.05;100566.78;105330;1259;64737;-55
2023/04/11 08:27:42;;;;;;;10.10;6.50;;;;;;;14.40;42.55;100564.75;105423;1254;60540;-56
2023/04/11 08:30:15;;;;;;;10.80;7.40;;;;;;;14.48;42.99;100566.42;106050;1254;60359;-56
2023/04/11 08:32:45;;;;;;;13.00;7.20;;;;;;;14.59;43.28;100563.98;105770;1257;67487;-57
2023/04/11 08:35:13;;;;;;;10.90;6.20;;;;;;;14.70;43.10;100561.46;105702;1254;62911;-56
2023/04/11 08:37:43;;;;;;;9.40;5.90;;;;;;;14.79;42.86;100561.23;105430;1254;64815;-57
2023/04/11 08:40:11;;;;;;;9.60;6.20;;;;;;;14.90;42.92;100554.57;105297;1258;60546;-54
2023/04/11 08:42:40;;;;;;;10.40;6.50;;;;;;;15.01;43.09;100551.91;105355;1254;60486;-55
2023/04/11 08:45:09;;;;;;;11.10;6.40;;;;;;;15.12;43.01;100551.48;105264;1262;66209;-55
2023/04/11 08:47:37;;;;;;;8.20;5.60;;;;;;;15.23;42.95;100548.25;105392;1254;62637;-55
2023/04/11 08:50:07;;;;;;;8.00;6.00;;;;;;;15.35;42.64;100540.66;106980;1254;64797;-55
2023/04/11 08:52:36;;;;;;;10.10;6.40;;;;;;;15.49;42.67;100539.55;105887;1254;60508;-56
2023/04/11 08:55:04;;;;;;;12.00;6.50;;;;;;;15.61;42.73;100537.40;105314;1254;60431;-56
2023/04/11 08:57:33;;;;;;;10.60;5.70;;;;;;;15.71;42.67;100533.64;105316;1254;65051;-56
2023/04/11 09:00:23;;;;;;;11.70;5.70;;;;;;;15.78;42.55;100532.44;105329;1254;292137;-55
2023/04/11 09:14:14;;;;;;;7.20;4.60;;;;;;;16.54;42.74;100515.82;103073;1286;612493;-55
2023/04/11 09:17:00;;;;;;;9.90;6.20;;;;;;;16.96;42.03;100510.50;107459;1266;96631;-55
2023/04/11 09:19:30;;;;;;;9.00;6.20;;;;;;;17.06;41.79;100504.35;104940;1264;59380;-55
2023/04/11 09:22:01;;;;;;;10.50;5.30;;;;;;;17.12;41.46;100503.84;105224;1267;64565;-55
2023/04/11 09:24:29;;;;;;;9.30;5.40;;;;;;;17.15;41.17;100502.52;104752;1264;62760;-55
2023/04/11 09:27:14;;;;;;;9.70;5.50;;;;;;;17.13;41.15;100498.66;104837;1269;64890;-55
2023/04/11 09:29:47;;;;;;;7.70;5.30;;;;;;;17.10;40.90;100494.66;104996;1264;59470;-55
2023/04/11 09:32:33;;;;;;;8.50;5.00;;;;;;;17.06;41.15;100489.04;104699;1264;59291;-56
2023/04/11 09:35:24;;;;;;;8.60;5.50;;;;;;;17.04;41.16;100485.77;104946;1269;64563;-55
2023/04/11 09:37:54;;;;;;;11.80;5.20;;;;;;;17.04;41.32;100481.89;104818;1269;61356;-55
2023/04/11 09:40:24;;;;;;;7.50;5.00;;;;;;;17.05;41.42;100481.36;105391;1263;65293;-55
2023/04/11 09:42:57;;;;;;;9.80;5.10;;;;;;;17.07;41.47;100478.31;104872;1267;60447;-57
2023/04/11 09:45:26;;;;;;;9.10;5.30;;;;;;;17.09;41.37;100478.47;105138;1267;59644;-59
2023/04/11 09:47:55;;;;;;;8.10;5.20;;;;;;;17.12;41.72;100472.67;104770;1267;65211;-55
2023/04/11 09:50:24;;;;;;;9.00;5.40;;;;;;;17.17;41.81;100469.55;104796;1269;61611;-56
2023/04/11 09:52:54;;;;;;;8.70;4.90;;;;;;;17.21;41.81;100466.20;104730;1269;64948;-56
2023/04/11 09:55:26;;;;;;;9.80;5.50;;;;;;;17.24;41.86;100459.13;104938;1269;59852;-55
2023/04/11 09:57:54;;;;;;;9.50;5.10;;;;;;;17.23;41.65;100458.20;104874;1264;60130;-58
2023/04/11 10:00:28;;;;;;;8.40;5.10;;;;;;;17.23;41.75;100456.45;105124;1268;65144;-54
2023/04/11 10:02:56;;;;;;;6.90;4.80;;;;;;;17.25;41.69;100450.09;105067;1269;61919;-57
2023/04/11 10:05:26;;;;;;;8.20;4.90;;;;;;;17.27;41.51;100447.13;104900;1264;65048;-55
2023/04/11 10:08:05;;;;;;;7.70;4.80;;;;;;;17.31;41.60;100439.83;104900;1264;59650;-55
2023/04/11 10:10:34;;;;;;;9.00;5.90;;;;;;;17.37;41.81;100436.16;104825;1264;59670;-56
2023/04/11 10:13:36;;;;;;;8.60;4.80;;;;;;;17.48;42.19;100437.86;104873;1269;65346;-57
2023/04/11 10:16:07;;;;;;;10.20;5.10;;;;;;;17.59;41.78;100438.42;104739;1267;62804;-55
2023/04/11 10:18:53;;;;;;;10.90;4.70;;;;;;;17.69;41.80;100436.74;104922;1267;65096;-57
2023/04/11 10:21:31;;;;;;;7.70;4.80;;;;;;;17.81;41.79;100430.69;104754;1267;59707;-57
2023/04/11 10:24:20;;;;;;;9.60;5.40;;;;;;;17.94;41.21;100428.41;104683;1265;60032;-56
2023/04/11 10:26:56;;;;;;;7.70;4.50;;;;;;;18.01;40.82;100422.77;105181;1267;64395;-57
2023/04/11 10:29:39;;;;;;;10.50;5.10;;;;;;;18.06;40.79;100420.48;105086;1267;62366;-56
2023/04/11 10:32:11;;;;;;;7.90;4.30;;;;;;;18.11;40.60;100412.64;104703;1267;64959;-56
2023/04/11 10:35:15;;;;;;;8.70;4.60;;;;;;;18.16;40.06;100405.16;105139;1267;59911;-57
2023/04/11 10:37:43;;;;;;;9.30;4.80;;;;;;;18.21;40.12;100406.58;105195;1264;59685;-57
2023/04/11 10:40:12;;;;;;;11.70;4.40;;;;;;;18.28;39.86;100404.05;105572;1262;66015;-56
2023/04/11 10:42:43;;;;;;;9.60;5.50;;;;;;;18.34;40.07;100400.17;104976;1263;62706;-57
2023/04/11 10:45:23;;;;;;;7.20;4.70;;;;;;;18.44;40.22;100398.56;104818;1264;64723;-57
2023/04/11 10:47:57;;;;;;;8.40;4.90;;;;;;;18.55;40.21;100393.35;104904;1263;59650;-57
2023/04/11 10:50:26;;;;;;;9.00;4.70;;;;;;;18.67;39.90;100385.41;105073;1263;59683;-58
2023/04/11 10:52:55;;;;;;;6.90;4.50;;;;;;;18.78;39.54;100385.98;104875;1265;65117;-56
2023/04/11 10:55:28;;;;;;;8.90;5.30;;;;;;;18.87;38.72;100384.98;105155;1264;62570;-56
2023/04/11 10:58:08;;;;;;;8.70;5.80;;;;;;;18.86;38.95;100387.57;104737;1264;65209;-55
2023/04/11 11:00:45;;;;;;;7.70;4.70;;;;;;;18.86;39.10;100389.09;105857;1263;59659;-55
2023/04/11 11:03:22;;;;;;;7.00;4.30;;;;;;;18.91;39.44;100383.77;104689;1266;59640;-53
2023/04/11 11:06:07;;;;;;;8.50;4.50;;;;;;;18.99;38.77;100385.46;107094;1265;65453;-56
2023/04/11 11:08:36;;;;;;;9.60;4.40;;;;;;;19.06;38.39;100383.41;108586;1261;62369;-55
2023/04/11 11:11:05;;;;;;;8.80;5.00;;;;;;;19.10;37.70;100378.71;108549;1262;64855;-56
2023/04/11 11:13:41;;;;;;;10.00;4.90;;;;;;;19.07;36.96;100370.91;108585;1262;57393;-56
2023/04/11 11:16:13;;;;;;;7.90;4.90;;;;;;;19.03;37.11;100371.34;108598;1263;57545;-56
2023/04/11 11:18:51;;;;;;;7.10;5.10;;;;;;;19.03;37.09;100367.84;107379;1262;64330;-57
2023/04/11 11:21:26;;;;;;;10.00;5.50;;;;;;;19.05;37.02;100364.73;104392;1266;62839;-55
2023/04/11 11:23:55;;;;;;;;;;;;;;;19.07;37.17;100361.52;108568;1262;64935;-56
2023/04/11 11:26:40;;;;;;;7.40;4.70;;;;;;;19.06;37.05;100364.45;108203;1263;58848;-57
2023/04/11 11:29:09;;;;;;;8.10;5.10;;;;;;;19.08;37.33;100363.47;105197;1264;59250;-54
2023/04/11 11:31:41;;;;;;;9.70;5.30;;;;;;;19.12;37.25;100357.16;105161;1264;64324;-54
2023/04/11 11:34:10;;;;;;;10.60;5.30;;;;;;;19.18;36.89;100356.08;105005;1266;62701;-54
2023/04/11 11:36:52;;;;;;;7.90;5.20;;;;;;;19.24;36.65;100351.87;105142;1263;65055;-54
2023/04/11 11:39:20;;;;;;;9.00;5.10;;;;;;;19.27;36.88;100348.06;107236;1263;59710;-56